sensor_id;sensor_type;location;lat;lon;timestamp;temperature;humidity
19817;DHT22;68323;49.394;8.434;2023-05-29T09:10:08;37.10;33.30
19817;DHT22;68323;49.394;8.434;2023-05-29T09:12:34;36.90;34.30
19817;DHT22;68323;49.394;8.434;2023-05-29T09:15:00;36.80;34.30
19817;DHT22;68323;49.394;8.434;2023-05-29T09:17:31;36.80;34.40
19817;DHT22;68323;49.394;8.434;2023-05-29T09:19:57;37.00;34.30
19817;DHT22;68323;49.394;8.434;2023-05-29T09:22:22;37.20;34.30
19817;DHT22;68323;49.394;8.434;2023-05-29T09:24:48;37.50;33.80
19817;DHT22;68323;49.394;8.434;2023-05-29T09:27:15;37.60;33.20
19817;DHT22;68323;49.394;8.434;2023-05-29T09:29:41;37.50;33.00
19817;DHT22;68323;49.394;8.434;2023-05-29T09:32:26;37.50;33.50
19817;DHT22;68323;49.394;8.434;2023-05-29T09:34:59;37.40;33.70
19817;DHT22;68323;49.394;8.434;2023-05-29T09:37:25;37.20;32.70
19817;DHT22;68323;49.394;8.434;2023-05-29T09:39:51;36.90;32.90
19817;DHT22;68323;49.394;8.434;2023-05-29T09:42:17;36.70;33.20
19817;DHT22;68323;49.394;8.434;2023-05-29T09:44:48;36.60;33.30
19817;DHT22;68323;49.394;8.434;2023-05-29T09:47:17;36.40;33.90
19817;DHT22;68323;49.394;8.434;2023-05-29T09:49:43;36.30;34.00
19817;DHT22;68323;49.394;8.434;2023-05-29T09:52:13;36.20;34.00
19817;DHT22;68323;49.394;8.434;2023-05-29T09:54:42;36.40;33.60
19817;DHT22;68323;49.394;8.434;2023-05-29T09:57:12;36.70;34.10
19817;DHT22;68323;49.394;8.434;2023-05-29T09:59:39;37.00;33.20
19817;DHT22;68323;49.394;8.434;2023-05-29T10:02:06;36.90;33.00
19817;DHT22;68323;49.394;8.434;2023-05-29T10:04:36;36.70;33.00
19817;DHT22;68323;49.394;8.434;2023-05-29T10:07:09;36.50;32.80
19817;DHT22;68323;49.394;8.434;2023-05-29T10:09:40;36.40;33.20
19817;DHT22;68323;49.394;8.434;2023-05-29T10:12:07;36.70;33.20
19817;DHT22;68323;49.394;8.434;2023-05-29T10:14:34;37.20;33.00
19817;DHT22;68323;49.394;8.434;2023-05-29T10:17:03;37.80;32.60
19817;DHT22;68323;49.394;8.434;2023-05-29T10:19:32;37.90;32.40
19817;DHT22;68323;49.394;8.434;2023-05-29T10:22:01;38.10;31.60
19817;DHT22;68323;49.394;8.434;2023-05-29T10:24:28;38.40;31.00
19817;DHT22;68323;49.394;8.434;2023-05-29T10:26:55;38.50;30.90
19817;DHT22;68323;49.394;8.434;2023-05-29T10:29:42;38.80;31.50
19817;DHT22;68323;49.394;8.434;2023-05-29T10:32:21;38.90;31.80
19817;DHT22;68323;49.394;8.434;2023-05-29T10:37:36;38.60;30.90
19817;DHT22;68323;49.394;8.434;2023-05-29T10:40:13;38.30;31.00
19817;DHT22;68323;49.394;8.434;2023-05-29T10:42:49;37.70;31.50
19817;DHT22;68323;49.394;8.434;2023-05-29T10:47:56;35.90;33.20
19817;DHT22;68323;49.394;8.434;2023-05-29T10:50:41;35.30;33.80
19817;DHT22;68323;49.394;8.434;2023-05-29T10:53:08;34.80;33.80
19817;DHT22;68323;49.394;8.434;2023-05-29T10:55:38;34.40;34.50
19817;DHT22;68323;49.394;8.434;2023-05-29T10:58:07;34.00;35.50
19817;DHT22;68323;49.394;8.434;2023-05-29T11:00:33;33.50;35.20
19817;DHT22;68323;49.394;8.434;2023-05-29T11:03:04;32.90;35.90
19817;DHT22;68323;49.394;8.434;2023-05-29T11:05:32;32.30;36.80
19817;DHT22;68323;49.394;8.434;2023-05-29T11:07:59;31.80;36.90
19817;DHT22;68323;49.394;8.434;2023-05-29T11:10:45;31.30;37.70
19817;DHT22;68323;49.394;8.434;2023-05-29T11:13:25;30.60;38.10
19817;DHT22;68323;49.394;8.434;2023-05-29T11:16:05;30.30;39.40
19817;DHT22;68323;49.394;8.434;2023-05-29T11:18:31;30.10;38.70
19817;DHT22;68323;49.394;8.434;2023-05-29T11:21:03;29.80;38.40
19817;DHT22;68323;49.394;8.434;2023-05-29T11:23:32;29.60;39.10
19817;DHT22;68323;49.394;8.434;2023-05-29T11:25:59;29.40;39.00
19817;DHT22;68323;49.394;8.434;2023-05-29T11:28:25;29.20;39.70
19817;DHT22;68323;49.394;8.434;2023-05-29T11:30:52;29.10;40.60
19817;DHT22;68323;49.394;8.434;2023-05-29T11:33:25;28.90;40.50
19817;DHT22;68323;49.394;8.434;2023-05-29T11:36:00;28.80;40.60
19817;DHT22;68323;49.394;8.434;2023-05-29T11:38:27;28.70;40.10
19817;DHT22;68323;49.394;8.434;2023-05-29T11:40:54;28.70;40.90
19817;DHT22;68323;49.394;8.434;2023-05-29T11:43:21;28.60;40.60
19817;DHT22;68323;49.394;8.434;2023-05-29T11:45:46;28.60;40.70
19817;DHT22;68323;49.394;8.434;2023-05-29T11:48:12;28.50;41.20
19817;DHT22;68323;49.394;8.434;2023-05-29T11:50:37;28.40;41.20
19817;DHT22;68323;49.394;8.434;2023-05-29T11:53:05;28.30;41.40
19817;DHT22;68323;49.394;8.434;2023-05-29T11:55:31;28.30;41.00
19817;DHT22;68323;49.394;8.434;2023-05-29T11:57:59;28.30;40.60
19817;DHT22;68323;49.394;8.434;2023-05-29T12:00:25;28.30;41.40
19817;DHT22;68323;49.394;8.434;2023-05-29T12:02:51;28.30;41.00
19817;DHT22;68323;49.394;8.434;2023-05-29T12:05:18;28.40;41.10
19817;DHT22;68323;49.394;8.434;2023-05-29T12:07:54;28.40;40.90
19817;DHT22;68323;49.394;8.434;2023-05-29T12:10:22;28.50;40.90
19817;DHT22;68323;49.394;8.434;2023-05-29T12:12:52;28.50;40.60
19817;DHT22;68323;49.394;8.434;2023-05-29T12:15:18;28.40;40.80
19817;DHT22;68323;49.394;8.434;2023-05-29T12:17:45;28.30;41.00
19817;DHT22;68323;49.394;8.434;2023-05-29T12:20:12;28.30;41.30
19817;DHT22;68323;49.394;8.434;2023-05-29T12:22:39;28.40;41.70
19817;DHT22;68323;49.394;8.434;2023-05-29T12:25:16;28.30;41.10
19817;DHT22;68323;49.394;8.434;2023-05-29T12:27:44;28.30;40.60
19817;DHT22;68323;49.394;8.434;2023-05-29T12:30:29;28.30;39.80
19817;DHT22;68323;49.394;8.434;2023-05-29T12:32:56;28.30;40.30
19817;DHT22;68323;49.394;8.434;2023-05-29T12:35:27;28.40;40.60
19817;DHT22;68323;49.394;8.434;2023-05-29T12:38:01;28.30;41.10
19817;DHT22;68323;49.394;8.434;2023-05-29T12:40:31;28.30;41.40
19817;DHT22;68323;49.394;8.434;2023-05-29T12:43:05;28.30;41.90
19817;DHT22;68323;49.394;8.434;2023-05-29T12:45:32;28.30;40.90
19817;DHT22;68323;49.394;8.434;2023-05-29T12:48:06;28.40;41.00
19817;DHT22;68323;49.394;8.434;2023-05-29T12:50:33;28.40;40.70
19817;DHT22;68323;49.394;8.434;2023-05-29T12:53:04;28.40;40.50
19817;DHT22;68323;49.394;8.434;2023-05-29T12:55:32;28.30;40.20
19817;DHT22;68323;49.394;8.434;2023-05-29T12:58:14;28.30;40.70
19817;DHT22;68323;49.394;8.434;2023-05-29T13:00:42;28.40;41.20
19817;DHT22;68323;49.394;8.434;2023-05-29T13:03:08;28.50;41.00
19817;DHT22;68323;49.394;8.434;2023-05-29T13:05:34;28.50;40.70
19817;DHT22;68323;49.394;8.434;2023-05-29T13:08:00;28.60;39.80
19817;DHT22;68323;49.394;8.434;2023-05-29T13:10:27;28.60;40.00
19817;DHT22;68323;49.394;8.434;2023-05-29T13:12:55;28.80;40.70
19817;DHT22;68323;49.394;8.434;2023-05-29T13:15:22;28.80;40.20
19817;DHT22;68323;49.394;8.434;2023-05-29T13:17:49;28.80;39.90
19817;DHT22;68323;49.394;8.434;2023-05-29T13:20:15;28.90;39.80
19817;DHT22;68323;49.394;8.434;2023-05-29T13:22:43;28.80;39.40
19817;DHT22;68323;49.394;8.434;2023-05-29T13:25:11;28.70;40.10
19817;DHT22;68323;49.394;8.434;2023-05-29T13:27:38;28.80;39.80
19817;DHT22;68323;49.394;8.434;2023-05-29T13:30:06;28.80;40.00
19817;DHT22;68323;49.394;8.434;2023-05-29T13:32:32;28.80;39.20
19817;DHT22;68323;49.394;8.434;2023-05-29T13:34:58;28.70;39.50
19817;DHT22;68323;49.394;8.434;2023-05-29T13:37:24;28.70;39.80
19817;DHT22;68323;49.394;8.434;2023-05-29T13:39:50;28.60;39.30
19817;DHT22;68323;49.394;8.434;2023-05-29T13:42:17;28.60;39.50
19817;DHT22;68323;49.394;8.434;2023-05-29T13:44:42;28.60;39.90
19817;DHT22;68323;49.394;8.434;2023-05-29T13:47:08;28.70;39.80
19817;DHT22;68323;49.394;8.434;2023-05-29T13:49:34;28.70;38.30
19817;DHT22;68323;49.394;8.434;2023-05-29T13:52:00;28.80;38.70
19817;DHT22;68323;49.394;8.434;2023-05-29T13:54:26;28.90;38.90
19817;DHT22;68323;49.394;8.434;2023-05-29T13:56:55;29.00;38.80
19817;DHT22;68323;49.394;8.434;2023-05-29T13:59:22;29.00;38.30
19817;DHT22;68323;49.394;8.434;2023-05-29T14:01:47;28.90;38.30
19817;DHT22;68323;49.394;8.434;2023-05-29T14:04:13;28.80;38.80
19817;DHT22;68323;49.394;8.434;2023-05-29T14:06:38;28.80;38.60
19817;DHT22;68323;49.394;8.434;2023-05-29T14:09:05;28.80;38.60
19817;DHT22;68323;49.394;8.434;2023-05-29T14:11:35;28.90;38.60
19817;DHT22;68323;49.394;8.434;2023-05-29T14:14:02;28.90;38.50
19817;DHT22;68323;49.394;8.434;2023-05-29T14:16:28;29.00;38.70
19817;DHT22;68323;49.394;8.434;2023-05-29T14:18:53;29.10;39.20
19817;DHT22;68323;49.394;8.434;2023-05-29T14:21:19;29.10;38.10
19817;DHT22;68323;49.394;8.434;2023-05-29T14:23:46;29.00;37.90
19817;DHT22;68323;49.394;8.434;2023-05-29T14:26:12;29.10;38.30
19817;DHT22;68323;49.394;8.434;2023-05-29T14:28:37;29.20;38.40
19817;DHT22;68323;49.394;8.434;2023-05-29T14:31:04;29.30;38.80
19817;DHT22;68323;49.394;8.434;2023-05-29T14:33:30;29.30;38.90
19817;DHT22;68323;49.394;8.434;2023-05-29T14:35:56;29.30;39.70
19817;DHT22;68323;49.394;8.434;2023-05-29T14:38:22;29.40;38.40
19817;DHT22;68323;49.394;8.434;2023-05-29T14:40:48;29.30;38.40
19817;DHT22;68323;49.394;8.434;2023-05-29T14:43:13;29.30;37.80
19817;DHT22;68323;49.394;8.434;2023-05-29T14:45:39;29.30;38.70
19817;DHT22;68323;49.394;8.434;2023-05-29T14:48:04;29.30;38.60
19817;DHT22;68323;49.394;8.434;2023-05-29T14:50:30;29.30;38.30
19817;DHT22;68323;49.394;8.434;2023-05-29T14:52:55;29.30;37.80
19817;DHT22;68323;49.394;8.434;2023-05-29T14:55:21;29.20;38.20
19817;DHT22;68323;49.394;8.434;2023-05-29T14:57:46;29.10;38.50
19817;DHT22;68323;49.394;8.434;2023-05-29T15:00:12;29.10;38.50
19817;DHT22;68323;49.394;8.434;2023-05-29T15:02:38;29.30;38.70
19817;DHT22;68323;49.394;8.434;2023-05-29T15:05:05;29.40;38.50
19817;DHT22;68323;49.394;8.434;2023-05-29T15:07:32;29.60;38.40
19817;DHT22;68323;49.394;8.434;2023-05-29T15:09:59;29.70;38.10
19817;DHT22;68323;49.394;8.434;2023-05-29T15:12:25;29.80;37.40
19817;DHT22;68323;49.394;8.434;2023-05-29T15:14:51;29.80;37.70
19817;DHT22;68323;49.394;8.434;2023-05-29T15:17:16;29.70;37.40
19817;DHT22;68323;49.394;8.434;2023-05-29T15:19:43;29.70;38.00
19817;DHT22;68323;49.394;8.434;2023-05-29T15:22:08;29.70;37.40
19817;DHT22;68323;49.394;8.434;2023-05-29T15:24:34;29.70;38.00
19817;DHT22;68323;49.394;8.434;2023-05-29T15:27:01;29.80;38.40
19817;DHT22;68323;49.394;8.434;2023-05-29T15:29:31;29.80;38.60
19817;DHT22;68323;49.394;8.434;2023-05-29T15:31:57;29.80;38.30
19817;DHT22;68323;49.394;8.434;2023-05-29T15:34:23;29.70;38.50
19817;DHT22;68323;49.394;8.434;2023-05-29T15:36:48;29.70;38.40
19817;DHT22;68323;49.394;8.434;2023-05-29T15:39:14;29.70;37.60
19817;DHT22;68323;49.394;8.434;2023-05-29T15:41:40;29.60;38.10
19817;DHT22;68323;49.394;8.434;2023-05-29T15:44:05;29.60;38.50
19817;DHT22;68323;49.394;8.434;2023-05-29T15:46:31;29.60;37.60
19817;DHT22;68323;49.394;8.434;2023-05-29T15:48:56;29.60;37.30
19817;DHT22;68323;49.394;8.434;2023-05-29T15:51:22;29.50;37.40
19817;DHT22;68323;49.394;8.434;2023-05-29T15:53:48;29.50;37.60
19817;DHT22;68323;49.394;8.434;2023-05-29T15:56:13;29.50;37.80
19817;DHT22;68323;49.394;8.434;2023-05-29T15:58:39;29.50;38.60
19817;DHT22;68323;49.394;8.434;2023-05-29T16:01:05;29.40;38.60
19817;DHT22;68323;49.394;8.434;2023-05-29T16:03:30;29.40;39.60
19817;DHT22;68323;49.394;8.434;2023-05-29T16:05:56;29.40;39.40
19817;DHT22;68323;49.394;8.434;2023-05-29T16:08:24;29.50;38.40
19817;DHT22;68323;49.394;8.434;2023-05-29T16:10:49;29.50;37.00
19817;DHT22;68323;49.394;8.434;2023-05-29T16:13:15;29.60;37.90
19817;DHT22;68323;49.394;8.434;2023-05-29T16:15:41;29.70;38.70
19817;DHT22;68323;49.394;8.434;2023-05-29T16:18:07;29.60;39.20
19817;DHT22;68323;49.394;8.434;2023-05-29T16:20:33;29.50;39.10
19817;DHT22;68323;49.394;8.434;2023-05-29T16:22:58;29.40;39.50
19817;DHT22;68323;49.394;8.434;2023-05-29T16:25:24;29.30;39.20
19817;DHT22;68323;49.394;8.434;2023-05-29T16:27:50;29.20;40.00
19817;DHT22;68323;49.394;8.434;2023-05-29T16:30:16;29.30;39.30
19817;DHT22;68323;49.394;8.434;2023-05-29T16:32:41;29.20;39.30
19817;DHT22;68323;49.394;8.434;2023-05-29T16:35:07;29.20;39.90
19817;DHT22;68323;49.394;8.434;2023-05-29T16:37:33;29.20;40.10
19817;DHT22;68323;49.394;8.434;2023-05-29T16:39:58;29.10;39.80
19817;DHT22;68323;49.394;8.434;2023-05-29T16:42:24;29.10;40.30
19817;DHT22;68323;49.394;8.434;2023-05-29T16:44:50;29.10;40.70
19817;DHT22;68323;49.394;8.434;2023-05-29T16:47:16;29.00;40.60
19817;DHT22;68323;49.394;8.434;2023-05-29T16:49:41;28.90;40.90
19817;DHT22;68323;49.394;8.434;2023-05-29T16:52:08;28.80;41.30
19817;DHT22;68323;49.394;8.434;2023-05-29T16:54:34;28.80;41.00
19817;DHT22;68323;49.394;8.434;2023-05-29T16:57:07;28.70;42.10
19817;DHT22;68323;49.394;8.434;2023-05-29T16:59:34;28.70;42.40
19817;DHT22;68323;49.394;8.434;2023-05-29T17:02:00;28.70;43.10
19817;DHT22;68323;49.394;8.434;2023-05-29T17:04:26;28.60;43.00
19817;DHT22;68323;49.394;8.434;2023-05-29T17:06:51;28.50;43.30
19817;DHT22;68323;49.394;8.434;2023-05-29T17:09:17;28.40;43.60
19817;DHT22;68323;49.394;8.434;2023-05-29T17:11:43;28.30;43.50
19817;DHT22;68323;49.394;8.434;2023-05-29T17:14:08;28.20;44.40
19817;DHT22;68323;49.394;8.434;2023-05-29T17:16:34;28.10;44.10
19817;DHT22;68323;49.394;8.434;2023-05-29T17:18:59;28.00;43.50
19817;DHT22;68323;49.394;8.434;2023-05-29T17:21:25;27.90;43.70
19817;DHT22;68323;49.394;8.434;2023-05-29T17:23:51;27.80;43.90
19817;DHT22;68323;49.394;8.434;2023-05-29T17:26:21;27.70;44.20
19817;DHT22;68323;49.394;8.434;2023-05-29T17:28:46;27.70;44.90
19817;DHT22;68323;49.394;8.434;2023-05-29T17:31:12;27.50;45.40
19817;DHT22;68323;49.394;8.434;2023-05-29T17:33:37;27.50;44.80
19817;DHT22;68323;49.394;8.434;2023-05-29T17:36:03;27.50;44.90
19817;DHT22;68323;49.394;8.434;2023-05-29T17:38:29;27.40;45.20
19817;DHT22;68323;49.394;8.434;2023-05-29T17:40:54;27.40;45.40
19817;DHT22;68323;49.394;8.434;2023-05-29T17:43:20;27.30;44.90
19817;DHT22;68323;49.394;8.434;2023-05-29T17:45:47;27.30;44.90
19817;DHT22;68323;49.394;8.434;2023-05-29T17:48:20;27.10;45.20
19817;DHT22;68323;49.394;8.434;2023-05-29T17:50:45;27.10;45.30
19817;DHT22;68323;49.394;8.434;2023-05-29T17:53:11;27.00;45.00
19817;DHT22;68323;49.394;8.434;2023-05-29T17:55:37;26.90;46.00
19817;DHT22;68323;49.394;8.434;2023-05-29T17:58:03;26.80;45.60
19817;DHT22;68323;49.394;8.434;2023-05-29T18:00:29;26.80;45.30
19817;DHT22;68323;49.394;8.434;2023-05-29T18:02:55;26.70;45.70
19817;DHT22;68323;49.394;8.434;2023-05-29T18:05:21;26.60;45.90
19817;DHT22;68323;49.394;8.434;2023-05-29T18:07:46;26.40;45.90
19817;DHT22;68323;49.394;8.434;2023-05-29T18:10:12;26.30;45.80
19817;DHT22;68323;49.394;8.434;2023-05-29T18:12:43;26.30;46.30
19817;DHT22;68323;49.394;8.434;2023-05-29T18:15:09;26.20;46.40
19817;DHT22;68323;49.394;8.434;2023-05-29T18:17:35;26.10;46.60
19817;DHT22;68323;49.394;8.434;2023-05-29T18:20:01;26.00;46.50
19817;DHT22;68323;49.394;8.434;2023-05-29T18:22:26;25.90;47.00
19817;DHT22;68323;49.394;8.434;2023-05-29T18:24:52;25.80;46.90
19817;DHT22;68323;49.394;8.434;2023-05-29T18:27:17;25.80;47.00
19817;DHT22;68323;49.394;8.434;2023-05-29T18:29:43;25.70;47.70
19817;DHT22;68323;49.394;8.434;2023-05-29T18:32:08;25.70;49.80
19817;DHT22;68323;49.394;8.434;2023-05-29T18:34:34;25.60;51.00
19817;DHT22;68323;49.394;8.434;2023-05-29T18:37:01;25.50;52.00
19817;DHT22;68323;49.394;8.434;2023-05-29T18:39:27;25.40;52.80
19817;DHT22;68323;49.394;8.434;2023-05-29T18:41:52;25.30;53.30
19817;DHT22;68323;49.394;8.434;2023-05-29T18:44:18;25.10;53.90
19817;DHT22;68323;49.394;8.434;2023-05-29T18:46:43;25.00;54.30
19817;DHT22;68323;49.394;8.434;2023-05-29T18:49:09;24.90;54.40
19817;DHT22;68323;49.394;8.434;2023-05-29T18:51:35;24.80;54.60
19817;DHT22;68323;49.394;8.434;2023-05-29T18:54:02;24.70;55.00
19817;DHT22;68323;49.394;8.434;2023-05-29T18:56:30;24.70;55.10
19817;DHT22;68323;49.394;8.434;2023-05-29T18:58:56;24.60;55.50
19817;DHT22;68323;49.394;8.434;2023-05-29T19:01:22;24.40;55.70
19817;DHT22;68323;49.394;8.434;2023-05-29T19:03:48;24.40;55.90
19817;DHT22;68323;49.394;8.434;2023-05-29T19:06:15;24.30;56.20
19817;DHT22;68323;49.394;8.434;2023-05-29T19:08:40;24.20;56.60
19817;DHT22;68323;49.394;8.434;2023-05-29T19:11:07;24.10;56.80
19817;DHT22;68323;49.394;8.434;2023-05-29T19:13:35;24.10;57.10
19817;DHT22;68323;49.394;8.434;2023-05-29T19:16:00;24.00;57.30
19817;DHT22;68323;49.394;8.434;2023-05-29T19:18:26;23.90;57.50
19817;DHT22;68323;49.394;8.434;2023-05-29T19:20:52;23.80;57.80
19817;DHT22;68323;49.394;8.434;2023-05-29T19:23:18;23.80;57.90
19817;DHT22;68323;49.394;8.434;2023-05-29T19:25:43;23.70;58.20
19817;DHT22;68323;49.394;8.434;2023-05-29T19:28:09;23.60;58.60
19817;DHT22;68323;49.394;8.434;2023-05-29T19:30:35;23.50;58.80
19817;DHT22;68323;49.394;8.434;2023-05-29T19:33:00;23.50;58.90
19817;DHT22;68323;49.394;8.434;2023-05-29T19:35:26;23.40;59.10
19817;DHT22;68323;49.394;8.434;2023-05-29T19:37:52;23.40;59.30
19817;DHT22;68323;49.394;8.434;2023-05-29T19:40:17;23.30;59.50
19817;DHT22;68323;49.394;8.434;2023-05-29T19:42:43;23.20;59.80
19817;DHT22;68323;49.394;8.434;2023-05-29T19:45:09;23.20;60.00
19817;DHT22;68323;49.394;8.434;2023-05-29T19:47:35;23.10;60.30
19817;DHT22;68323;49.394;8.434;2023-05-29T19:50:04;23.10;60.50
19817;DHT22;68323;49.394;8.434;2023-05-29T19:52:33;23.00;60.70
19817;DHT22;68323;49.394;8.434;2023-05-29T19:54:58;22.90;61.00
19817;DHT22;68323;49.394;8.434;2023-05-29T19:57:25;22.90;61.30
19817;DHT22;68323;49.394;8.434;2023-05-29T19:59:51;22.80;61.50
19817;DHT22;68323;49.394;8.434;2023-05-29T20:02:19;22.70;61.70
19817;DHT22;68323;49.394;8.434;2023-05-29T20:04:44;22.70;62.10
19817;DHT22;68323;49.394;8.434;2023-05-29T20:07:10;22.60;62.40
19817;DHT22;68323;49.394;8.434;2023-05-29T20:09:35;22.60;62.60
19817;DHT22;68323;49.394;8.434;2023-05-29T20:12:01;22.50;62.80
19817;DHT22;68323;49.394;8.434;2023-05-29T20:14:27;22.50;63.00
19817;DHT22;68323;49.394;8.434;2023-05-29T20:16:53;22.40;63.30
19817;DHT22;68323;49.394;8.434;2023-05-29T20:19:19;22.40;63.70
19817;DHT22;68323;49.394;8.434;2023-05-29T20:21:45;22.40;63.90
19817;DHT22;68323;49.394;8.434;2023-05-29T20:24:10;22.30;64.20
19817;DHT22;68323;49.394;8.434;2023-05-29T20:26:38;22.20;64.40
19817;DHT22;68323;49.394;8.434;2023-05-29T20:29:04;22.20;64.60
19817;DHT22;68323;49.394;8.434;2023-05-29T20:31:29;22.20;64.80
19817;DHT22;68323;49.394;8.434;2023-05-29T20:33:55;22.10;64.90
19817;DHT22;68323;49.394;8.434;2023-05-29T20:36:21;22.00;65.40
19817;DHT22;68323;49.394;8.434;2023-05-29T20:38:46;22.00;65.60
19817;DHT22;68323;49.394;8.434;2023-05-29T20:41:13;22.00;65.90
19817;DHT22;68323;49.394;8.434;2023-05-29T20:43:39;21.90;66.20
19817;DHT22;68323;49.394;8.434;2023-05-29T20:46:04;21.80;66.30
19817;DHT22;68323;49.394;8.434;2023-05-29T20:48:31;21.80;66.50
19817;DHT22;68323;49.394;8.434;2023-05-29T20:50:57;21.70;66.90
19817;DHT22;68323;49.394;8.434;2023-05-29T20:53:23;21.70;67.30
19817;DHT22;68323;49.394;8.434;2023-05-29T20:55:49;21.70;67.20
19817;DHT22;68323;49.394;8.434;2023-05-29T20:58:15;21.60;67.60
19817;DHT22;68323;49.394;8.434;2023-05-29T21:00:41;21.50;67.80
19817;DHT22;68323;49.394;8.434;2023-05-29T21:03:06;21.50;67.90
19817;DHT22;68323;49.394;8.434;2023-05-29T21:05:33;21.50;68.20
19817;DHT22;68323;49.394;8.434;2023-05-29T21:08:03;21.50;68.40
19817;DHT22;68323;49.394;8.434;2023-05-29T21:10:29;21.40;68.90
19817;DHT22;68323;49.394;8.434;2023-05-29T21:12:55;21.30;68.90
19817;DHT22;68323;49.394;8.434;2023-05-29T21:15:20;21.30;69.00
19817;DHT22;68323;49.394;8.434;2023-05-29T21:17:46;21.20;69.40
19817;DHT22;68323;49.394;8.434;2023-05-29T21:20:12;21.20;69.40
19817;DHT22;68323;49.394;8.434;2023-05-29T21:22:38;21.10;69.60
19817;DHT22;68323;49.394;8.434;2023-05-29T21:25:04;21.00;69.80
19817;DHT22;68323;49.394;8.434;2023-05-29T21:27:30;21.00;70.30
19817;DHT22;68323;49.394;8.434;2023-05-29T21:29:55;20.90;70.50
19817;DHT22;68323;49.394;8.434;2023-05-29T21:32:27;20.90;71.00
19817;DHT22;68323;49.394;8.434;2023-05-29T21:34:53;20.90;70.80
19817;DHT22;68323;49.394;8.434;2023-05-29T21:37:23;20.80;70.90
19817;DHT22;68323;49.394;8.434;2023-05-29T21:39:49;20.80;71.20
19817;DHT22;68323;49.394;8.434;2023-05-29T21:42:16;20.70;71.30
19817;DHT22;68323;49.394;8.434;2023-05-29T21:44:42;20.70;71.40
19817;DHT22;68323;49.394;8.434;2023-05-29T21:47:09;20.70;71.70
19817;DHT22;68323;49.394;8.434;2023-05-29T21:49:35;20.60;71.90
19817;DHT22;68323;49.394;8.434;2023-05-29T21:52:01;20.60;72.00
19817;DHT22;68323;49.394;8.434;2023-05-29T21:54:26;20.50;72.20
19817;DHT22;68323;49.394;8.434;2023-05-29T21:56:52;20.50;72.20
19817;DHT22;68323;49.394;8.434;2023-05-29T21:59:17;20.40;72.20
19817;DHT22;68323;49.394;8.434;2023-05-29T22:01:43;20.40;72.60
19817;DHT22;68323;49.394;8.434;2023-05-29T22:04:08;20.30;72.80
19817;DHT22;68323;49.394;8.434;2023-05-29T22:06:34;20.30;73.10
19817;DHT22;68323;49.394;8.434;2023-05-29T22:09:01;20.20;73.30
19817;DHT22;68323;49.394;8.434;2023-05-29T22:11:27;20.20;73.30
19817;DHT22;68323;49.394;8.434;2023-05-29T22:13:52;20.10;73.90
19817;DHT22;68323;49.394;8.434;2023-05-29T22:16:18;20.10;73.90
19817;DHT22;68323;49.394;8.434;2023-05-29T22:18:44;20.10;74.30
19817;DHT22;68323;49.394;8.434;2023-05-29T22:21:12;20.00;74.50
19817;DHT22;68323;49.394;8.434;2023-05-29T22:23:38;19.90;74.30
19817;DHT22;68323;49.394;8.434;2023-05-29T22:26:04;19.90;74.60
19817;DHT22;68323;49.394;8.434;2023-05-29T22:28:30;19.90;75.10
19817;DHT22;68323;49.394;8.434;2023-05-29T22:30:57;19.80;75.20
19817;DHT22;68323;49.394;8.434;2023-05-29T22:33:23;19.80;75.40
19817;DHT22;68323;49.394;8.434;2023-05-29T22:35:49;19.70;75.30
19817;DHT22;68323;49.394;8.434;2023-05-29T22:38:16;19.70;75.40
19817;DHT22;68323;49.394;8.434;2023-05-29T22:40:41;19.60;75.50
19817;DHT22;68323;49.394;8.434;2023-05-29T22:43:07;19.60;75.80
19817;DHT22;68323;49.394;8.434;2023-05-29T22:45:33;19.60;76.10
19817;DHT22;68323;49.394;8.434;2023-05-29T22:47:58;19.50;76.30
19817;DHT22;68323;49.394;8.434;2023-05-29T22:50:25;19.40;76.50
19817;DHT22;68323;49.394;8.434;2023-05-29T22:52:51;19.40;76.80
19817;DHT22;68323;49.394;8.434;2023-05-29T22:55:17;19.40;77.30
19817;DHT22;68323;49.394;8.434;2023-05-29T22:57:42;19.30;77.50
19817;DHT22;68323;49.394;8.434;2023-05-29T23:00:08;19.30;77.60
19817;DHT22;68323;49.394;8.434;2023-05-29T23:02:35;19.20;78.20
19817;DHT22;68323;49.394;8.434;2023-05-29T23:05:01;19.20;78.30
19817;DHT22;68323;49.394;8.434;2023-05-29T23:07:27;19.10;78.70
19817;DHT22;68323;49.394;8.434;2023-05-29T23:09:53;19.10;79.00
19817;DHT22;68323;49.394;8.434;2023-05-29T23:12:19;19.10;79.00
19817;DHT22;68323;49.394;8.434;2023-05-29T23:14:45;19.00;79.20
19817;DHT22;68323;49.394;8.434;2023-05-29T23:17:11;19.00;79.70
19817;DHT22;68323;49.394;8.434;2023-05-29T23:19:36;18.90;79.70
19817;DHT22;68323;49.394;8.434;2023-05-29T23:22:03;18.90;79.90
19817;DHT22;68323;49.394;8.434;2023-05-29T23:24:28;18.90;80.10
19817;DHT22;68323;49.394;8.434;2023-05-29T23:26:54;18.90;80.50
19817;DHT22;68323;49.394;8.434;2023-05-29T23:29:19;18.80;80.70
19817;DHT22;68323;49.394;8.434;2023-05-29T23:31:45;18.80;80.80
19817;DHT22;68323;49.394;8.434;2023-05-29T23:34:12;18.70;81.00
19817;DHT22;68323;49.394;8.434;2023-05-29T23:36:41;18.70;81.40
19817;DHT22;68323;49.394;8.434;2023-05-29T23:39:06;18.60;81.50
19817;DHT22;68323;49.394;8.434;2023-05-29T23:41:32;18.60;81.40
19817;DHT22;68323;49.394;8.434;2023-05-29T23:43:58;18.60;81.60
19817;DHT22;68323;49.394;8.434;2023-05-29T23:46:23;18.60;81.80
19817;DHT22;68323;49.394;8.434;2023-05-29T23:48:49;18.50;81.70
19817;DHT22;68323;49.394;8.434;2023-05-29T23:51:15;18.50;81.70
19817;DHT22;68323;49.394;8.434;2023-05-29T23:53:41;18.50;82.10
19817;DHT22;68323;49.394;8.434;2023-05-29T23:56:06;18.40;82.40
19817;DHT22;68323;49.394;8.434;2023-05-29T23:58:32;18.40;83.10
